createdAt,value
2022-07-25T00:00:26.612Z,59.92
2022-07-25T00:02:53.502Z,59.60
2022-07-25T00:05:20.855Z,59.69
2022-07-25T00:07:48.007Z,59.38
2022-07-25T00:10:14.854Z,59.84
2022-07-25T00:12:42.334Z,59.99
2022-07-25T00:15:09.949Z,59.87
2022-07-25T00:17:37.101Z,60.02
2022-07-25T00:20:04.874Z,60.24
2022-07-25T00:22:31.731Z,60.45
2022-07-25T00:24:58.669Z,60.49
2022-07-25T00:27:25.738Z,60.31
2022-07-25T00:29:52.611Z,60.21
2022-07-25T00:32:19.520Z,60.43
2022-07-25T00:34:46.490Z,60.38
2022-07-25T00:37:13.346Z,60.46
2022-07-25T00:39:40.234Z,60.59
2022-07-25T00:42:07.308Z,60.69
2022-07-25T00:44:34.340Z,60.34
2022-07-25T00:47:01.560Z,60.42
2022-07-25T00:49:28.420Z,60.62
2022-07-25T00:51:55.633Z,60.62
2022-07-25T00:54:23.049Z,60.92
2022-07-25T00:56:50.677Z,61.81
2022-07-25T00:59:18.124Z,62.00
2022-07-25T01:01:48.123Z,62.02
2022-07-25T01:04:17.256Z,62.72
2022-07-25T01:06:44.602Z,63.49
2022-07-25T01:09:11.627Z,64.41
2022-07-25T01:11:39.140Z,64.75
2022-07-25T01:14:06.551Z,65.62
2022-07-25T01:16:34.980Z,65.54
2022-07-25T01:19:01.837Z,65.89
2022-07-25T01:21:29.146Z,66.11
2022-07-25T01:23:55.972Z,66.19
2022-07-25T01:26:22.825Z,66.32
2022-07-25T01:28:49.705Z,66.07
2022-07-25T01:31:16.716Z,66.39
2022-07-25T01:33:43.644Z,66.98
2022-07-25T01:36:10.811Z,67.13
2022-07-25T01:38:37.641Z,67.36
2022-07-25T01:41:04.651Z,67.56
2022-07-25T01:43:31.718Z,67.37
2022-07-25T01:45:58.573Z,67.29
2022-07-25T01:48:26.351Z,67.66
2022-07-25T01:50:53.405Z,67.51
2022-07-25T01:53:21.592Z,67.23
2022-07-25T01:55:48.453Z,67.42
2022-07-25T01:58:15.286Z,67.14
2022-07-25T02:00:42.256Z,67.43
2022-07-25T02:03:29.366Z,67.31
2022-07-25T02:06:01.176Z,66.47
2022-07-25T02:08:29.982Z,66.29
2022-07-25T02:10:58.254Z,65.73
2022-07-25T02:13:26.897Z,65.56
2022-07-25T02:15:53.869Z,65.15
2022-07-25T02:18:20.956Z,65.23
2022-07-25T02:20:47.939Z,65.58
2022-07-25T02:23:14.782Z,65.61
2022-07-25T02:25:41.629Z,65.25
2022-07-25T02:28:08.478Z,65.38
2022-07-25T02:30:38.229Z,65.74
2022-07-25T02:33:05.208Z,66.44
2022-07-25T02:35:32.164Z,66.69
2022-07-25T02:37:59.214Z,67.58
2022-07-25T02:40:26.278Z,67.54
2022-07-25T02:42:53.154Z,67.85
2022-07-25T02:45:20.105Z,67.69
2022-07-25T02:47:47.013Z,67.86
2022-07-25T02:50:14.969Z,68.13
2022-07-25T02:52:42.717Z,68.40
2022-07-25T02:55:10.522Z,68.49
2022-07-25T02:57:37.435Z,68.67
2022-07-25T03:00:06.974Z,69.36
2022-07-25T03:02:34.379Z,68.72
2022-07-25T03:05:01.386Z,68.54
2022-07-25T03:07:28.231Z,68.60
2022-07-25T03:09:55.062Z,68.98
2022-07-25T03:12:22.089Z,69.65
2022-07-25T03:14:48.941Z,69.73
2022-07-25T03:17:16.101Z,69.98
2022-07-25T03:19:42.936Z,69.82
2022-07-25T03:22:10.128Z,69.72
2022-07-25T03:24:37.053Z,69.55
2022-07-25T03:27:04.034Z,69.88
2022-07-25T03:29:30.903Z,69.75
2022-07-25T03:31:59.331Z,69.75
2022-07-25T03:34:26.524Z,69.84
2022-07-25T03:36:53.369Z,69.62
2022-07-25T03:39:21.062Z,69.98
2022-07-25T03:41:47.936Z,68.86
2022-07-25T03:44:14.833Z,68.37
2022-07-25T03:46:41.680Z,67.93
2022-07-25T03:49:08.617Z,67.68
2022-07-25T03:51:35.647Z,69.05
2022-07-25T03:54:02.686Z,70.76
2022-07-25T03:56:43.241Z,70.52
2022-07-25T03:59:14.191Z,70.64
2022-07-25T04:01:42.444Z,70.80
2022-07-25T04:04:12.092Z,70.93
2022-07-25T04:06:40.405Z,70.68
2022-07-25T04:09:09.205Z,70.31
2022-07-25T04:11:38.178Z,69.76
2022-07-25T04:14:06.526Z,70.02
2022-07-25T04:16:34.231Z,70.29
2022-07-25T04:19:01.201Z,68.93
2022-07-25T04:21:28.790Z,68.60
2022-07-25T04:23:56.773Z,68.30
2022-07-25T04:26:23.819Z,68.25
2022-07-25T04:28:50.688Z,68.00
2022-07-25T04:31:17.710Z,67.62
2022-07-25T04:33:44.675Z,67.85
2022-07-25T04:36:11.538Z,67.53
2022-07-25T04:38:38.602Z,67.65
2022-07-25T04:41:05.823Z,67.68
2022-07-25T04:43:32.711Z,68.13
2022-07-25T04:45:59.809Z,68.49
2022-07-25T04:48:27.026Z,68.88
2022-07-25T04:50:54.176Z,69.23
2022-07-25T04:53:21.267Z,68.94
2022-07-25T04:55:48.197Z,68.46
2022-07-25T04:58:15.187Z,68.28
2022-07-25T05:00:42.166Z,67.76
2022-07-25T05:03:09.113Z,67.35
2022-07-25T05:05:36.023Z,66.84
2022-07-25T05:08:02.942Z,66.05
2022-07-25T05:10:30.318Z,65.53
2022-07-25T05:12:57.311Z,64.79
2022-07-25T05:15:24.651Z,64.32
2022-07-25T05:17:51.901Z,63.67
2022-07-25T05:20:18.965Z,62.71
2022-07-25T05:22:46.008Z,62.06
2022-07-25T05:25:13.231Z,61.81
2022-07-25T05:27:40.731Z,61.41
2022-07-25T05:30:09.970Z,61.12
2022-07-25T05:32:37.594Z,60.55
2022-07-25T05:35:07.851Z,60.39
2022-07-25T05:37:35.789Z,60.20
2022-07-25T05:40:03.858Z,60.39
2022-07-25T05:42:30.754Z,60.22
2022-07-25T05:44:57.646Z,60.09
2022-07-25T05:47:24.475Z,59.56
2022-07-25T05:49:51.311Z,59.77
2022-07-25T05:52:18.149Z,59.49
2022-07-25T05:54:44.974Z,58.86
2022-07-25T05:57:11.882Z,58.25
2022-07-25T05:59:38.748Z,57.41
2022-07-25T06:02:05.730Z,57.42
2022-07-25T06:04:33.381Z,56.17
2022-07-25T06:07:00.215Z,56.54
2022-07-25T06:09:27.462Z,56.12
2022-07-25T06:12:00.398Z,55.44
2022-07-25T06:14:28.961Z,54.19
2022-07-25T06:16:57.003Z,53.44
2022-07-25T06:19:24.042Z,52.59
2022-07-25T06:21:50.906Z,52.75
2022-07-25T06:24:17.770Z,52.03
2022-07-25T06:26:44.707Z,52.37
2022-07-25T06:29:12.153Z,51.84
2022-07-25T06:31:39.167Z,51.91
2022-07-25T06:34:06.457Z,51.49
2022-07-25T06:36:33.922Z,51.28
2022-07-25T06:39:01.420Z,51.40
2022-07-25T06:41:28.367Z,50.93
2022-07-25T06:43:55.251Z,51.37
2022-07-25T06:46:22.140Z,50.26
2022-07-25T06:48:49.075Z,49.11
2022-07-25T06:51:15.981Z,49.24
2022-07-25T06:53:42.904Z,47.77
2022-07-25T06:56:12.178Z,49.50
2022-07-25T06:58:41.286Z,49.64
2022-07-25T07:01:08.156Z,48.58
2022-07-25T07:03:38.324Z,47.58
2022-07-25T07:06:09.250Z,48.22
2022-07-25T07:08:36.855Z,49.55
2022-07-25T07:11:04.881Z,48.63
2022-07-25T07:13:31.835Z,47.84
2022-07-25T07:15:58.840Z,46.97
2022-07-25T07:18:26.021Z,45.82
2022-07-25T07:20:53.541Z,46.30
2022-07-25T07:23:20.389Z,44.98
2022-07-25T07:25:47.681Z,44.93
2022-07-25T07:28:15.560Z,45.10
2022-07-25T07:33:30.037Z,44.49
2022-07-25T07:35:57.609Z,43.49
2022-07-25T07:38:25.387Z,43.62
2022-07-25T07:40:53.672Z,43.38
2022-07-25T07:43:23.043Z,42.26
2022-07-25T07:45:52.018Z,43.40
2022-07-25T07:48:18.921Z,42.58
2022-07-25T07:50:46.011Z,42.83
2022-07-25T07:53:12.914Z,41.75
2022-07-25T07:55:45.763Z,42.95
2022-07-25T07:58:16.449Z,42.72
2022-07-25T08:00:45.882Z,41.47
2022-07-25T08:03:13.329Z,41.15
2022-07-25T08:05:44.432Z,40.48
2022-07-25T08:08:13.950Z,40.71
2022-07-25T08:10:44.934Z,44.66
2022-07-25T08:13:18.182Z,47.11
2022-07-25T08:15:48.516Z,44.93
2022-07-25T08:18:17.468Z,43.62
2022-07-25T08:20:49.817Z,42.62
2022-07-25T08:23:18.009Z,41.76
2022-07-25T08:25:46.443Z,44.08
2022-07-25T08:28:14.798Z,43.37
2022-07-25T08:30:42.385Z,42.16
2022-07-25T08:33:13.356Z,41.99
2022-07-25T08:35:41.795Z,41.64
2022-07-25T08:38:11.575Z,44.11
2022-07-25T08:40:38.794Z,43.14
2022-07-25T08:43:06.070Z,41.76
2022-07-25T08:45:33.671Z,41.04
2022-07-25T08:48:00.557Z,39.72
2022-07-25T08:50:29.433Z,40.01
2022-07-25T08:53:22.999Z,38.78
2022-07-25T08:55:45.628Z,39.70
2022-07-25T08:58:14.750Z,39.59
2022-07-25T09:00:41.927Z,38.99
2022-07-25T09:03:09.066Z,40.69
2022-07-25T09:05:37.345Z,41.06
2022-07-25T09:08:14.046Z,40.26
2022-07-25T09:10:48.209Z,38.94
2022-07-25T09:13:17.272Z,40.75
2022-07-25T09:15:47.928Z,41.05
2022-07-25T09:18:23.133Z,40.23
2022-07-25T09:20:59.094Z,38.83
2022-07-25T09:23:28.950Z,39.91
2022-07-25T09:26:22.094Z,39.15
2022-07-25T09:28:51.333Z,40.72
2022-07-25T09:31:21.496Z,41.47
2022-07-25T09:33:56.412Z,39.74
2022-07-25T09:36:24.150Z,39.46
2022-07-25T09:39:01.712Z,40.05
2022-07-25T09:41:41.736Z,38.56
2022-07-25T09:44:22.952Z,38.54
2022-07-25T09:46:50.556Z,37.62
2022-07-25T09:49:17.565Z,37.04
2022-07-25T09:51:44.746Z,36.14
2022-07-25T09:54:11.784Z,36.70
2022-07-25T09:56:38.658Z,36.18
2022-07-25T09:59:06.830Z,35.02
2022-07-25T10:01:49.435Z,35.08
2022-07-25T10:04:23.247Z,35.54
2022-07-25T10:06:59.748Z,35.94
2022-07-25T10:09:26.760Z,36.51
2022-07-25T10:12:15.162Z,35.37
2022-07-25T10:14:42.457Z,36.19
2022-07-25T10:17:09.690Z,33.43
2022-07-25T10:19:52.014Z,33.42
2022-07-25T10:22:34.365Z,33.18
2022-07-25T10:25:19.311Z,32.29
2022-07-25T10:28:01.164Z,32.38
2022-07-25T10:30:35.500Z,31.75
2022-07-25T10:33:24.709Z,31.76
2022-07-25T10:35:51.611Z,32.86
2022-07-25T10:38:25.304Z,33.40
2022-07-25T10:40:52.714Z,32.39
2022-07-25T10:43:22.328Z,32.30
2022-07-25T10:45:51.950Z,31.18
2022-07-25T10:48:32.852Z,31.00
2022-07-25T10:51:08.689Z,30.74
2022-07-25T10:53:47.628Z,31.50
2022-07-25T10:56:27.926Z,31.41
2022-07-25T10:59:00.552Z,30.07
2022-07-25T11:01:34.724Z,29.03
2022-07-25T11:04:05.899Z,30.57
2022-07-25T11:06:43.048Z,31.80
2022-07-25T11:09:27.741Z,31.42
2022-07-25T11:11:59.695Z,28.75
2022-07-25T11:14:35.217Z,28.38
2022-07-25T11:17:22.233Z,27.35
2022-07-25T11:20:09.106Z,28.39
2022-07-25T11:22:36.060Z,28.85
2022-07-25T11:25:12.169Z,28.79
2022-07-25T11:27:39.013Z,27.92
2022-07-25T11:30:19.860Z,27.11
2022-07-25T11:32:54.025Z,26.98
2022-07-25T11:35:25.053Z,27.91
2022-07-25T11:37:53.499Z,28.74
2022-07-25T11:40:22.496Z,28.78
2022-07-25T11:42:53.578Z,27.89
2022-07-25T11:45:24.037Z,27.70
2022-07-25T11:48:14.597Z,27.64
2022-07-25T11:50:44.729Z,26.90
2022-07-25T11:53:18.314Z,26.84
2022-07-25T11:55:45.289Z,26.10
2022-07-25T11:58:14.241Z,26.44
2022-07-25T12:00:44.773Z,25.76
2022-07-25T12:03:21.117Z,26.37
2022-07-25T12:05:49.953Z,27.08
2022-07-25T12:08:20.452Z,27.07
2022-07-25T12:10:49.197Z,27.60
2022-07-25T12:13:30.728Z,24.49
2022-07-25T12:15:59.333Z,26.63
2022-07-25T12:18:28.002Z,25.73
2022-07-25T12:20:55.186Z,25.01
2022-07-25T12:23:22.225Z,24.93
2022-07-25T12:25:49.686Z,24.97
2022-07-25T12:28:16.655Z,24.92
2022-07-25T12:30:45.762Z,26.37
2022-07-25T12:33:13.398Z,24.66
2022-07-25T12:35:42.554Z,24.64
2022-07-25T12:38:11.009Z,25.28
2022-07-25T12:40:38.478Z,24.22
2022-07-25T12:43:05.888Z,23.79
2022-07-25T12:45:33.055Z,23.64
2022-07-25T12:48:00.005Z,24.82
2022-07-25T12:50:26.989Z,25.41
2022-07-25T12:52:54.259Z,24.25
2022-07-25T12:55:21.621Z,24.02
2022-07-25T12:57:49.452Z,23.22
2022-07-25T13:00:20.384Z,24.35
2022-07-25T13:02:49.143Z,25.43
2022-07-25T13:05:16.195Z,24.38
2022-07-25T13:07:43.210Z,24.34
2022-07-25T13:10:12.549Z,25.20
2022-07-25T13:12:39.413Z,23.99
2022-07-25T13:15:07.372Z,24.08
2022-07-25T13:17:34.734Z,24.44
2022-07-25T13:20:01.750Z,24.13
2022-07-25T13:22:28.898Z,24.11
2022-07-25T13:24:55.986Z,22.81
2022-07-25T13:27:23.618Z,23.27
2022-07-25T13:29:54.779Z,22.64
2022-07-25T13:32:22.678Z,22.56
2022-07-25T13:34:50.191Z,22.06
2022-07-25T13:37:17.207Z,22.61
2022-07-25T13:39:44.165Z,22.41
2022-07-25T13:42:11.154Z,21.89
2022-07-25T13:44:38.039Z,22.30
2022-07-25T13:47:05.220Z,22.04
2022-07-25T13:49:32.604Z,22.58
2022-07-25T13:51:59.482Z,21.97
2022-07-25T13:54:26.359Z,22.67
2022-07-25T13:56:53.264Z,22.42
2022-07-25T13:59:21.636Z,23.66
2022-07-25T14:01:50.136Z,22.43
2022-07-25T14:04:17.320Z,22.23
2022-07-25T14:06:44.306Z,21.58
2022-07-25T14:09:11.504Z,22.28
2022-07-25T14:11:38.582Z,21.98
2022-07-25T14:14:05.458Z,21.36
2022-07-25T14:16:33.970Z,22.11
2022-07-25T14:19:02.209Z,22.62
2022-07-25T14:21:29.979Z,22.76
2022-07-25T14:23:56.869Z,22.32
2022-07-25T14:26:23.725Z,22.54
2022-07-25T14:28:50.760Z,22.57
2022-07-25T14:31:17.667Z,23.21
2022-07-25T14:33:44.558Z,23.79
2022-07-25T14:36:11.478Z,23.31
2022-07-25T14:38:38.964Z,23.23
2022-07-25T14:41:10.716Z,22.68
2022-07-25T14:43:40.763Z,23.22
2022-07-25T14:46:08.289Z,22.49
2022-07-25T14:48:38.917Z,23.00
2022-07-25T14:51:07.072Z,22.11
2022-07-25T14:53:37.314Z,22.74
2022-07-25T14:56:06.030Z,22.00
2022-07-25T14:58:33.697Z,21.91
2022-07-25T15:01:01.036Z,21.66
2022-07-25T15:03:28.051Z,21.70
2022-07-25T15:05:54.984Z,21.62
2022-07-25T15:08:22.201Z,20.49
2022-07-25T15:10:49.351Z,21.61
2022-07-25T15:13:32.356Z,22.22
2022-07-25T15:16:00.630Z,20.12
2022-07-25T15:18:28.063Z,21.03
2022-07-25T15:20:55.328Z,20.48
2022-07-25T15:23:24.805Z,20.82
2022-07-25T15:26:02.741Z,20.80
2022-07-25T15:28:35.629Z,21.45
2022-07-25T15:31:03.181Z,21.61
2022-07-25T15:33:30.165Z,22.61
2022-07-25T15:35:57.357Z,21.40
2022-07-25T15:38:24.216Z,20.57
2022-07-25T15:40:51.380Z,21.21
2022-07-25T15:43:18.306Z,21.06
2022-07-25T15:45:46.573Z,20.86
2022-07-25T15:48:16.243Z,20.17
2022-07-25T15:50:46.750Z,20.58
2022-07-25T15:53:14.062Z,19.93
2022-07-25T15:55:42.115Z,19.04
2022-07-25T15:58:10.972Z,20.65
2022-07-25T16:00:39.782Z,23.03
2022-07-25T16:03:07.113Z,23.77
2022-07-25T16:05:34.700Z,24.43
2022-07-25T16:08:01.979Z,23.72
2022-07-25T16:10:31.563Z,23.71
2022-07-25T16:12:59.001Z,23.86
2022-07-25T16:15:26.451Z,24.10
2022-07-25T16:18:00.213Z,24.87
2022-07-25T16:20:31.693Z,25.56
2022-07-25T16:22:59.625Z,26.00
2022-07-25T16:25:29.326Z,25.36
2022-07-25T16:27:57.064Z,25.40
2022-07-25T16:30:24.690Z,25.71
2022-07-25T16:32:51.763Z,25.99
2022-07-25T16:35:18.788Z,26.47
2022-07-25T16:37:45.955Z,26.52
2022-07-25T16:40:14.012Z,25.85
2022-07-25T16:42:40.870Z,26.09
2022-07-25T16:45:08.654Z,26.53
2022-07-25T16:47:36.383Z,26.54
2022-07-25T16:50:03.554Z,26.55
2022-07-25T16:52:30.420Z,26.71
2022-07-25T16:54:57.261Z,26.82
2022-07-25T16:57:25.262Z,27.39
2022-07-25T16:59:53.429Z,28.12
2022-07-25T17:02:29.229Z,28.84
2022-07-25T17:04:57.120Z,27.67
2022-07-25T17:07:24.765Z,27.58
2022-07-25T17:09:52.117Z,29.01
2022-07-25T17:12:19.258Z,29.26
2022-07-25T17:14:46.309Z,29.52
2022-07-25T17:17:13.281Z,29.94
2022-07-25T17:19:40.752Z,30.22
2022-07-25T17:22:09.654Z,30.86
2022-07-25T17:24:37.837Z,30.73
2022-07-25T17:27:06.177Z,30.98
2022-07-25T17:29:33.385Z,30.69
2022-07-25T17:32:00.343Z,31.34
2022-07-25T17:34:27.338Z,31.89
2022-07-25T17:36:55.051Z,32.33
2022-07-25T17:39:22.144Z,31.55
2022-07-25T17:41:52.001Z,32.42
2022-07-25T17:44:21.546Z,32.92
2022-07-25T17:46:50.236Z,34.02
2022-07-25T17:49:17.448Z,35.19
2022-07-25T17:51:46.056Z,35.55
2022-07-25T17:54:12.931Z,36.52
2022-07-25T17:56:40.205Z,37.74
2022-07-25T17:59:08.672Z,38.44
2022-07-25T18:01:35.983Z,38.54
2022-07-25T18:04:03.801Z,38.36
2022-07-25T18:06:30.989Z,39.07
2022-07-25T18:08:58.507Z,38.70
2022-07-25T18:11:25.526Z,38.82
2022-07-25T18:13:52.384Z,38.64
2022-07-25T18:16:19.371Z,39.26
2022-07-25T18:18:46.504Z,39.64
2022-07-25T18:21:13.338Z,39.25
2022-07-25T18:23:40.222Z,39.66
2022-07-25T18:26:07.212Z,39.61
2022-07-25T18:28:34.080Z,39.78
2022-07-25T18:31:01.175Z,39.84
2022-07-25T18:33:28.480Z,40.11
2022-07-25T18:35:55.405Z,40.47
2022-07-25T18:38:22.274Z,40.30
2022-07-25T18:40:51.645Z,40.71
2022-07-25T18:43:24.611Z,40.45
2022-07-25T18:45:53.745Z,40.69
2022-07-25T18:48:20.644Z,40.92
2022-07-25T18:50:47.565Z,40.90
2022-07-25T18:53:14.442Z,41.20
2022-07-25T18:55:42.062Z,41.91
2022-07-25T18:58:09.023Z,41.78
2022-07-25T19:00:35.953Z,42.49
2022-07-25T19:03:02.908Z,43.05
2022-07-25T19:05:29.876Z,42.99
2022-07-25T19:07:59.686Z,43.07
2022-07-25T19:10:26.606Z,43.97
2022-07-25T19:12:53.450Z,43.50
2022-07-25T19:15:20.410Z,43.94
2022-07-25T19:17:47.355Z,44.35
2022-07-25T19:20:14.617Z,44.97
2022-07-25T19:22:41.521Z,45.55
2022-07-25T19:25:10.856Z,46.83
2022-07-25T19:27:39.362Z,46.55
2022-07-25T19:30:13.919Z,47.04
2022-07-25T19:32:44.996Z,47.64
2022-07-25T19:35:11.822Z,47.54
2022-07-25T19:37:38.722Z,48.36
2022-07-25T19:40:06.593Z,48.70
2022-07-25T19:42:34.881Z,48.92
2022-07-25T19:45:01.824Z,49.51
2022-07-25T19:47:29.078Z,49.51
2022-07-25T19:49:56.007Z,49.64
2022-07-25T19:52:23.123Z,49.41
2022-07-25T19:54:50.054Z,49.35
2022-07-25T19:57:17.034Z,49.29
2022-07-25T19:59:43.945Z,50.06
2022-07-25T20:02:11.105Z,49.73
2022-07-25T20:04:38.064Z,49.59
2022-07-25T20:07:04.960Z,49.64
2022-07-25T20:09:33.577Z,50.25
2022-07-25T20:12:03.286Z,50.15
2022-07-25T20:14:30.394Z,50.73
2022-07-25T20:16:57.931Z,50.48
2022-07-25T20:19:24.952Z,51.04
2022-07-25T20:21:52.309Z,50.70
2022-07-25T20:24:21.675Z,52.22
2022-07-25T20:26:49.377Z,52.28
2022-07-25T20:29:17.842Z,52.23
2022-07-25T20:31:45.051Z,53.03
2022-07-25T20:34:15.477Z,53.18
2022-07-25T20:36:42.824Z,52.55
2022-07-25T20:39:10.258Z,52.79
2022-07-25T20:41:38.299Z,53.00
2022-07-25T20:44:05.709Z,52.82
2022-07-25T20:46:35.874Z,53.06
2022-07-25T20:49:09.000Z,53.03
2022-07-25T20:51:37.842Z,54.17
2022-07-25T20:54:05.184Z,55.15
2022-07-25T20:56:32.473Z,53.16
2022-07-25T20:58:59.700Z,52.01
2022-07-25T21:01:26.642Z,51.48
2022-07-25T21:03:53.585Z,50.04
2022-07-25T21:06:20.437Z,49.73
2022-07-25T21:08:54.273Z,48.31
2022-07-25T21:11:21.835Z,48.15
2022-07-25T21:13:48.794Z,47.66
2022-07-25T21:16:15.936Z,47.67
2022-07-25T21:18:42.850Z,51.45
2022-07-25T21:21:12.390Z,63.62
2022-07-25T21:23:41.105Z,64.32
2022-07-25T21:26:07.973Z,63.42
2022-07-25T21:28:34.840Z,64.38
2022-07-25T21:31:01.801Z,66.30
2022-07-25T21:33:28.778Z,68.34
2022-07-25T21:35:55.681Z,70.75
2022-07-25T21:38:27.495Z,71.73
2022-07-25T21:40:57.454Z,71.57
2022-07-25T21:43:24.695Z,75.00
2022-07-25T21:45:51.945Z,75.76
2022-07-25T21:48:21.934Z,75.70
2022-07-25T21:50:49.386Z,76.91
2022-07-25T21:53:17.430Z,77.54
2022-07-25T21:55:44.260Z,76.03
2022-07-25T21:58:11.097Z,76.24
2022-07-25T22:00:44.632Z,76.27
2022-07-25T22:03:12.819Z,75.73
2022-07-25T22:05:39.731Z,76.18
2022-07-25T22:08:06.745Z,76.05
2022-07-25T22:10:33.654Z,75.81
2022-07-25T22:13:00.648Z,76.50
2022-07-25T22:15:27.545Z,77.28
2022-07-25T22:17:54.694Z,76.32
2022-07-25T22:20:21.566Z,76.14
2022-07-25T22:22:49.574Z,76.27
2022-07-25T22:25:17.098Z,75.59
2022-07-25T22:27:44.212Z,76.26
2022-07-25T22:30:16.466Z,75.53
2022-07-25T22:32:47.752Z,74.88
2022-07-25T22:35:15.190Z,75.19
2022-07-25T22:37:43.857Z,74.44
2022-07-25T22:40:11.771Z,75.47
2022-07-25T22:42:38.614Z,76.18
2022-07-25T22:45:06.237Z,77.33
2022-07-25T22:47:33.090Z,77.39
2022-07-25T22:49:59.932Z,77.37
2022-07-25T22:52:26.754Z,79.35
2022-07-25T22:54:53.716Z,80.21
2022-07-25T22:57:20.643Z,80.59
2022-07-25T22:59:49.471Z,78.85
2022-07-25T23:02:16.524Z,77.35
2022-07-25T23:04:43.341Z,77.34
2022-07-25T23:07:10.286Z,76.55
2022-07-25T23:09:37.128Z,77.81
2022-07-25T23:12:05.203Z,77.24
2022-07-25T23:14:32.460Z,78.64
2022-07-25T23:17:17.767Z,77.89
2022-07-25T23:19:50.960Z,77.77
2022-07-25T23:22:19.949Z,77.28
2022-07-25T23:24:46.909Z,78.29
2022-07-25T23:27:14.093Z,77.45
2022-07-25T23:29:41.334Z,77.99
2022-07-25T23:32:08.462Z,79.34
2022-07-25T23:34:36.353Z,79.08
2022-07-25T23:37:03.765Z,78.86
2022-07-25T23:39:31.772Z,77.14
2022-07-25T23:41:59.910Z,76.97
2022-07-25T23:44:27.110Z,76.78
2022-07-25T23:46:56.896Z,77.49
2022-07-25T23:49:24.376Z,77.47
2022-07-25T23:51:51.576Z,78.94
2022-07-25T23:54:18.586Z,78.73
2022-07-25T23:56:45.456Z,77.98
2022-07-25T23:59:12.434Z,77.92
